x

Venice, Fl (venf1) Weather Station

1:00pm - Sat 31st Jan 2015 All times are EST. -5 hours from GMT.

  • Wind
    13mph, 20mph gusts
  • Sea Temp 63°f
  • Air Temp 68°f
  • Sea Pressure 1023.4mb
  • Venice, Fl
  • Venice, Fl

More Historic Weather Station data

Upgrade to MSW Pro to gain access to the past 30 days of data for over 8000 Wavebouys and Weather Stations around the globe.

Join Pro

Comparision Forecast

View Surf forecast
   
Sat 01/31 1:00pm 13 20 mph 1023.4mb 63f 68f
12:00pm 14 17 mph 1024mb 63f 67f
11:00am 11 17 mph 1024.7mb 63f 63f
10:00am 11 15 mph 1024.8mb 63f 59f
9:00am 11 15 mph 1024.4mb 63f 54f
8:00am 9 13 mph 1023.8mb 62f 49f
7:00am 7 9 mph 1023.5mb 62f 48f
6:00am 9 13 mph 1022.9mb 63f 49f
5:00am 10 14 mph 1022.6mb 63f 50f
4:00am 10 11 mph 1022.9mb 63f 51f
3:00am 10 15 mph 1022.9mb 63f 53f
2:00am 11 15 mph 1022.8mb 63f 55f
1:00am 10 15 mph 1022.8mb 64f 56f
12:00am 9 11 mph 1022.8mb 64f 57f
Fri 01/30 11:00pm 9 11 mph 1022.8mb 64f 58f
10:00pm 9 10 mph 1022.5mb 64f 59f
9:00pm 9 10 mph 1021.9mb 64f 62f
8:00pm 13
mph
1021.6mb 65f 63f
7:00pm  -  1 mph 1021.2mb 64f 64f
6:00pm 2
mph
1020.7mb 65f 64f
5:00pm 3
mph
1020.9mb 65f 67f
4:00pm 5
mph
1020.8mb 65f 66f
3:00pm 6
mph
1021mb 64f 65f
2:00pm 7 8 mph 1021.2mb 64f 65f
1:00pm 8 9 mph 1022.1mb 63f 63f
12:00pm 6 7 mph 1023.2mb 63f 63f
11:00am 3 5 mph 1023.9mb 63f 63f
10:00am 3 5 mph 1023.8mb 63f 62f
9:00am 3
mph
1023.6mb 63f 60f
8:00am 7
mph
1023.6mb 63f 58f
7:00am 8
mph
1022.9mb 63f 55f
6:00am 8
mph
1022.4mb 63f 55f
5:00am 7
mph
1022mb 63f 57f
4:00am 7 8 mph 1022.2mb 63f 55f
3:00am 8
mph
1022.7mb 63f 56f
2:00am 8
mph
1023mb 63f 55f
1:00am 9
mph
1023.2mb 63f 56f
12:00am 10 13 mph 1023.5mb 63f 58f
Thu 01/29 11:00pm 6
mph
1023.8mb 63f 59f
10:00pm 6 7 mph 1023.9mb 63f 61f
9:00pm 7
mph
1024.3mb 64f 62f
8:00pm 5 6 mph 1023.8mb 64f 63f
7:00pm 11
mph
1023.5mb 64f 63f
6:00pm 11
mph
1023.2mb 64f 64f
5:00pm 8
mph
1022.7mb 64f 66f
4:00pm 8 9 mph 1022.6mb 64f 67f
3:00pm 9 10 mph 1022.9mb 63f 67f
2:00pm 1 3 mph 1023.1mb 63f 69f
1:00pm 3 6 mph 1024mb 62f 68f
12:00pm 9 11 mph 1024.8mb 63f 66f
11:00am 17 21 mph 1025.8mb 62f 64f
10:00am 11 16 mph 1025.6mb 62f 59f
9:00am 10 14 mph 1025.5mb 62f 53f
8:00am 13 17 mph 1025.5mb 62f 49f
7:00am 11 14 mph 1024.6mb 62f 47f
6:00am 10 14 mph 1024.1mb 62f 47f
5:00am 11 14 mph 1024mb 63f 47f
4:00am 9 11 mph 1024.1mb 63f 46f
3:00am 9 11 mph 1024.3mb 63f 47f
2:00am 9 11 mph 1024.7mb 63f 47f
1:00am 8 9 mph 1024.4mb 63f 47f
12:00am 8 11 mph 1024.7mb 63f 49f
Wed 01/28 11:00pm 9 15 mph 1024.6mb 63f 51f
10:00pm 6 8 mph 1024mb 63f 52f
9:00pm 7 9 mph 1023.4mb 64f 53f
8:00pm 7 8 mph 1022.8mb 64f 55f
7:00pm 7 8 mph 1022.3mb 64f 58f
6:00pm 17 18 mph 1022mb 64f 59f
5:00pm 15 16 mph 1021.6mb 64f 59f
4:00pm 20 22 mph 1021.3mb 65f 59f
3:00pm 21 22 mph 1021mb 64f 59f
2:00pm 18 20 mph 1021.3mb 64f 59f
1:00pm 13 15 mph 1022.2mb 64f 59f
12:00pm 9 13 mph 1023mb 64f 58f
11:00am 10 13 mph 1023.4mb 64f 57f
10:00am 9 10 mph 1023.2mb 64f 56f
9:00am 11 14 mph 1022.6mb 64f 53f
8:00am 8 11 mph 1021.8mb 64f 53f
7:00am 10 11 mph 1020.9mb 64f 53f
6:00am 10 13 mph 1020mb 64f 54f
5:00am 8 9 mph 1019.2mb 64f 54f
4:00am 7
mph
1018.8mb 64f 55f
3:00am 6 7 mph 1018.6mb 64f 56f
2:00am 6 8 mph 1018.5mb 64f 59f
1:00am 13 15 mph 1018.3mb 64f 60f
12:00am 17 20 mph 1018mb 64f 62f
Tue 01/27 11:00pm 25 28 mph 1017.5mb 64f 64f
10:00pm 18 21 mph 1016.9mb 64f 65f
9:00pm 20 22 mph 1016.4mb 64f 66f
8:00pm 18 21 mph 1015.9mb 65f 66f